createdAt,value
2023-04-17T00:01:13.477Z,11.50
2023-04-17T00:03:17.111Z,11.93
2023-04-17T00:05:23.166Z,11.27
2023-04-17T00:07:28.418Z,13.77
2023-04-17T00:09:31.020Z,11.40
2023-04-17T00:11:33.070Z,15.13
2023-04-17T00:13:35.271Z,13.80
2023-04-17T00:15:37.300Z,16.00
2023-04-17T00:17:39.355Z,15.77
2023-04-17T00:19:41.453Z,14.63
2023-04-17T00:21:43.655Z,12.67
2023-04-17T00:23:46.104Z,13.30
2023-04-17T00:25:48.255Z,13.60
2023-04-17T00:27:50.941Z,15.30
2023-04-17T00:29:52.930Z,12.43
2023-04-17T00:31:55.045Z,15.33
2023-04-17T00:33:58.832Z,22.13
2023-04-17T00:36:00.862Z,13.50
2023-04-17T00:38:02.971Z,15.17
2023-04-17T00:40:05.579Z,13.30
2023-04-17T00:42:07.618Z,12.80
2023-04-17T00:44:09.619Z,11.23
2023-04-17T00:46:13.046Z,12.67
2023-04-17T00:48:16.986Z,12.73
2023-04-17T00:50:19.182Z,9.70
2023-04-17T00:52:29.876Z,16.47
2023-04-17T00:54:32.381Z,14.50
2023-04-17T00:56:34.666Z,11.83
2023-04-17T00:58:37.580Z,17.27
2023-04-17T01:00:39.953Z,12.20
2023-04-17T01:02:42.178Z,10.60
2023-04-17T01:04:44.524Z,20.07
2023-04-17T01:06:46.647Z,11.73
2023-04-17T01:08:48.692Z,12.00
2023-04-17T01:10:50.919Z,13.37
2023-04-17T01:13:06.586Z,16.40
2023-04-17T01:15:09.990Z,16.67
2023-04-17T01:17:14.516Z,15.50
2023-04-17T01:19:17.108Z,14.00
2023-04-17T01:21:19.064Z,11.87
2023-04-17T01:23:21.256Z,14.23
2023-04-17T01:25:23.591Z,15.00
2023-04-17T01:27:25.653Z,11.30
2023-04-17T01:29:27.847Z,12.50
2023-04-17T01:31:34.411Z,14.70
2023-04-17T01:33:36.437Z,16.00
2023-04-17T01:35:38.539Z,15.50
2023-04-17T01:37:40.616Z,11.87
2023-04-17T01:39:42.641Z,19.00
2023-04-17T01:41:44.895Z,11.03
2023-04-17T01:43:47.727Z,14.43
2023-04-17T01:45:49.818Z,14.50
2023-04-17T01:47:53.865Z,14.63
2023-04-17T01:49:55.964Z,15.87
2023-04-17T01:51:57.999Z,19.13
2023-04-17T01:54:00.332Z,14.03
2023-04-17T01:56:02.584Z,16.70
2023-04-17T01:58:05.071Z,13.33
2023-04-17T02:00:07.974Z,16.53
2023-04-17T02:02:14.442Z,13.20
2023-04-17T02:04:17.088Z,17.77
2023-04-17T02:06:19.265Z,23.10
2023-04-17T02:08:21.411Z,14.40
2023-04-17T02:10:23.501Z,15.97
2023-04-17T02:12:25.650Z,15.50
2023-04-17T02:14:27.687Z,17.33
2023-04-17T02:16:32.346Z,15.40
2023-04-17T02:18:34.499Z,16.10
2023-04-17T02:20:37.616Z,19.20
2023-04-17T02:22:39.907Z,15.97
2023-04-17T02:24:41.877Z,14.20
2023-04-17T02:26:43.971Z,20.07
2023-04-17T02:28:47.954Z,15.30
2023-04-17T02:30:50.362Z,15.37
2023-04-17T02:32:54.327Z,15.40
2023-04-17T02:34:56.804Z,16.60
2023-04-17T02:36:59.158Z,20.30
2023-04-17T02:39:01.415Z,17.40
2023-04-17T02:41:04.198Z,13.07
2023-04-17T02:43:06.661Z,17.40
2023-04-17T02:45:10.985Z,14.50
2023-04-17T02:47:13.112Z,13.77
2023-04-17T02:49:15.961Z,19.23
2023-04-17T02:51:18.438Z,16.73
2023-04-17T02:53:20.638Z,16.80
2023-04-17T02:55:24.430Z,16.43
2023-04-17T02:57:26.832Z,18.37
2023-04-17T02:59:28.868Z,15.57
2023-04-17T03:01:31.000Z,16.50
2023-04-17T03:03:35.178Z,22.30
2023-04-17T03:05:40.278Z,16.60
2023-04-17T03:07:42.454Z,16.30
2023-04-17T03:09:47.426Z,16.57
2023-04-17T03:11:49.986Z,17.37
2023-04-17T03:13:52.021Z,15.53
2023-04-17T03:15:54.010Z,18.87
2023-04-17T03:17:56.424Z,21.70
2023-04-17T03:19:58.495Z,17.40
2023-04-17T03:22:01.840Z,18.80
2023-04-17T03:24:05.043Z,21.20
2023-04-17T03:26:07.527Z,23.40
2023-04-17T03:28:09.632Z,17.90
2023-04-17T03:30:11.910Z,19.93
2023-04-17T03:32:14.931Z,18.10
2023-04-17T03:34:18.702Z,21.97
2023-04-17T03:36:20.754Z,27.53
2023-04-17T03:38:22.806Z,22.43
2023-04-17T03:40:24.805Z,19.63
2023-04-17T03:42:27.584Z,23.70
2023-04-17T03:44:29.556Z,23.87
2023-04-17T03:46:31.617Z,20.43
2023-04-17T03:48:34.019Z,19.30
2023-04-17T03:50:36.236Z,23.00
2023-04-17T03:52:38.294Z,22.47
2023-04-17T03:54:40.793Z,21.03
2023-04-17T03:56:42.858Z,23.87
2023-04-17T03:58:45.840Z,22.63
2023-04-17T04:00:55.278Z,24.53
2023-04-17T04:03:00.597Z,19.00
2023-04-17T04:05:09.781Z,19.73
2023-04-17T04:07:13.232Z,20.87
2023-04-17T04:09:15.246Z,21.00
2023-04-17T04:11:17.891Z,22.60
2023-04-17T04:13:19.992Z,19.60
2023-04-17T04:15:27.758Z,24.83
2023-04-17T04:17:34.045Z,20.60
2023-04-17T04:19:36.355Z,20.77
2023-04-17T04:21:38.647Z,21.77
2023-04-17T04:23:45.586Z,22.77
2023-04-17T04:25:50.631Z,22.60
2023-04-17T04:28:01.747Z,28.33
2023-04-17T04:30:04.795Z,22.30
2023-04-17T04:32:13.653Z,20.20
2023-04-17T04:34:19.237Z,22.77
2023-04-17T04:36:22.940Z,25.80
2023-04-17T04:38:33.736Z,19.10
2023-04-17T04:40:52.319Z,26.53
2023-04-17T04:42:55.960Z,27.03
2023-04-17T04:45:04.703Z,19.80
2023-04-17T04:47:08.071Z,24.80
2023-04-17T04:49:10.596Z,22.60
2023-04-17T04:51:12.908Z,21.83
2023-04-17T04:53:15.650Z,23.53
2023-04-17T04:55:24.520Z,21.00
2023-04-17T04:57:28.179Z,22.07
2023-04-17T04:59:34.003Z,23.10
2023-04-17T05:02:02.407Z,26.13
2023-04-17T05:04:04.929Z,22.60
2023-04-17T05:06:09.499Z,23.13
2023-04-17T05:08:18.999Z,20.50
2023-04-17T05:10:30.107Z,21.87
2023-04-17T05:12:35.826Z,21.57
2023-04-17T05:14:40.851Z,21.20
2023-04-17T05:16:44.196Z,19.20
2023-04-17T05:18:48.067Z,24.13
2023-04-17T05:20:53.963Z,25.13
2023-04-17T05:22:56.855Z,20.17
2023-04-17T05:24:58.907Z,22.37
2023-04-17T05:27:02.278Z,35.70
2023-04-17T05:29:04.414Z,22.77
2023-04-17T05:31:08.749Z,27.30
2023-04-17T05:33:14.743Z,21.40
2023-04-17T05:35:22.429Z,22.20
2023-04-17T05:37:26.187Z,19.27
2023-04-17T05:39:28.253Z,19.57
2023-04-17T05:41:31.203Z,19.43
2023-04-17T05:43:33.362Z,26.60
2023-04-17T05:45:36.010Z,22.67
2023-04-17T05:47:38.359Z,21.27
2023-04-17T05:49:40.517Z,22.23
2023-04-17T05:51:42.524Z,20.20
2023-04-17T05:53:44.938Z,23.20
2023-04-17T05:55:47.023Z,18.27
2023-04-17T05:57:49.290Z,20.57
2023-04-17T05:59:51.511Z,20.80
2023-04-17T06:01:54.232Z,21.27
2023-04-17T06:03:57.813Z,21.33
2023-04-17T06:06:02.425Z,18.37
2023-04-17T06:08:06.550Z,24.00
2023-04-17T06:10:09.055Z,21.43
2023-04-17T06:12:15.992Z,16.30
2023-04-17T06:14:19.713Z,16.70
2023-04-17T06:16:22.546Z,18.73
2023-04-17T06:18:24.850Z,18.40
2023-04-17T06:20:26.892Z,16.53
2023-04-17T06:22:28.960Z,16.73
2023-04-17T06:24:31.042Z,19.90
2023-04-17T06:26:33.199Z,14.50
2023-04-17T06:28:35.380Z,17.13
2023-04-17T06:30:38.010Z,16.33
2023-04-17T06:32:43.210Z,15.03
2023-04-17T06:34:58.602Z,14.93
2023-04-17T06:37:14.884Z,16.70
2023-04-17T06:39:17.472Z,16.70
2023-04-17T06:41:19.711Z,16.07
2023-04-17T06:43:21.860Z,14.33
2023-04-17T06:45:24.155Z,14.03
2023-04-17T06:47:26.172Z,11.53
2023-04-17T06:49:28.163Z,12.73
2023-04-17T06:51:30.258Z,17.17
2023-04-17T06:53:32.408Z,13.70
2023-04-17T06:55:34.450Z,19.43
2023-04-17T06:57:36.833Z,13.40
2023-04-17T06:59:39.158Z,17.23
2023-04-17T07:01:41.847Z,13.80
2023-04-17T07:03:44.114Z,14.47
2023-04-17T07:05:46.638Z,15.10
2023-04-17T07:07:48.679Z,17.37
2023-04-17T07:09:50.704Z,17.00
2023-04-17T07:11:52.856Z,16.27
2023-04-17T07:13:55.005Z,13.30
2023-04-17T07:15:58.345Z,19.40
2023-04-17T07:18:00.522Z,13.77
2023-04-17T07:20:02.971Z,19.13
2023-04-17T07:22:05.777Z,14.47
2023-04-17T07:24:07.877Z,17.13
2023-04-17T07:26:11.362Z,15.40
2023-04-17T07:28:14.155Z,16.50
2023-04-17T07:30:16.236Z,23.67
2023-04-17T07:32:18.289Z,25.40
2023-04-17T07:34:20.412Z,20.20
2023-04-17T07:36:22.453Z,17.53
2023-04-17T07:38:24.552Z,29.73
2023-04-17T07:40:27.098Z,17.87
2023-04-17T07:42:29.447Z,18.90
2023-04-17T07:44:31.501Z,17.53
2023-04-17T07:46:33.609Z,19.83
2023-04-17T07:48:35.869Z,18.60
2023-04-17T07:50:37.792Z,17.67
2023-04-17T07:52:39.906Z,19.73
2023-04-17T07:54:41.980Z,17.70
2023-04-17T07:56:46.622Z,15.87
2023-04-17T07:58:51.955Z,16.67
2023-04-17T08:00:54.166Z,18.57
2023-04-17T08:02:56.296Z,16.00
2023-04-17T08:05:00.366Z,28.13
2023-04-17T08:07:02.644Z,18.20
2023-04-17T08:09:04.706Z,17.13
2023-04-17T08:11:06.721Z,16.57
2023-04-17T08:13:08.790Z,18.80
2023-04-17T08:15:11.322Z,19.80
2023-04-17T08:17:13.336Z,20.97
2023-04-17T08:19:15.512Z,17.63
2023-04-17T08:21:17.498Z,12.30
2023-04-17T08:23:19.546Z,15.40
2023-04-17T08:25:21.677Z,17.80
2023-04-17T08:27:25.623Z,15.70
2023-04-17T08:29:27.861Z,17.00
2023-04-17T08:31:30.604Z,13.90
2023-04-17T08:33:32.872Z,14.20
2023-04-17T08:35:35.064Z,16.03
2023-04-17T08:37:38.312Z,16.10
2023-04-17T08:39:40.604Z,15.17
2023-04-17T08:41:51.180Z,20.67
2023-04-17T08:43:54.315Z,14.03
2023-04-17T08:45:56.933Z,13.37
2023-04-17T08:47:59.415Z,13.23
2023-04-17T08:50:09.555Z,15.70
2023-04-17T08:52:12.180Z,12.10
2023-04-17T08:54:14.374Z,13.50
2023-04-17T08:56:16.558Z,15.03
2023-04-17T08:58:21.880Z,15.53
2023-04-17T09:00:28.712Z,13.87
2023-04-17T09:02:31.036Z,12.47
2023-04-17T09:04:39.241Z,25.03
2023-04-17T09:06:54.587Z,14.83
2023-04-17T09:09:01.824Z,14.00
2023-04-17T09:11:04.071Z,19.63
2023-04-17T09:13:06.955Z,15.40
2023-04-17T09:15:16.611Z,16.57
2023-04-17T09:17:20.573Z,14.53
2023-04-17T09:19:22.766Z,13.07
2023-04-17T09:21:29.091Z,12.70
2023-04-17T09:23:45.590Z,20.20
2023-04-17T09:26:05.661Z,15.77
2023-04-17T09:28:13.401Z,18.80
2023-04-17T09:30:15.750Z,15.03
2023-04-17T09:32:18.000Z,14.00
2023-04-17T09:34:20.805Z,13.27
2023-04-17T09:36:22.985Z,12.70
2023-04-17T09:38:38.193Z,13.83
2023-04-17T09:40:42.091Z,13.90
2023-04-17T09:43:01.471Z,13.63
2023-04-17T09:45:19.359Z,13.00
2023-04-17T09:47:24.370Z,15.20
2023-04-17T09:49:36.518Z,14.27
2023-04-17T09:51:38.960Z,14.87
2023-04-17T09:53:41.924Z,11.67
2023-04-17T09:55:44.738Z,12.13
2023-04-17T09:57:49.276Z,11.37
2023-04-17T09:59:51.761Z,13.37
2023-04-17T10:01:57.182Z,15.17
2023-04-17T10:04:01.623Z,18.83
2023-04-17T10:06:04.235Z,12.93
2023-04-17T10:08:07.198Z,13.53
2023-04-17T10:10:10.989Z,12.80
2023-04-17T10:12:15.118Z,15.80
2023-04-17T10:14:25.386Z,17.33
2023-04-17T10:16:47.269Z,13.20
2023-04-17T10:19:28.916Z,12.73
2023-04-17T10:21:31.289Z,16.67
2023-04-17T10:23:34.713Z,17.33
2023-04-17T10:25:36.936Z,13.67
2023-04-17T10:27:40.095Z,12.27
2023-04-17T10:30:02.491Z,13.13
2023-04-17T10:32:11.681Z,14.77
2023-04-17T10:34:41.007Z,12.10
2023-04-17T10:36:44.736Z,13.57
2023-04-17T10:38:47.371Z,11.17
2023-04-17T10:40:50.829Z,13.57
2023-04-17T10:43:17.262Z,16.00
2023-04-17T10:45:19.684Z,11.23
2023-04-17T10:47:22.661Z,13.70
2023-04-17T10:49:25.043Z,12.20
2023-04-17T10:51:27.849Z,12.03
2023-04-17T10:53:44.180Z,10.23
2023-04-17T10:55:50.608Z,11.27
2023-04-17T10:58:04.970Z,12.83
2023-04-17T11:00:14.128Z,10.80
2023-04-17T11:02:16.608Z,13.23
2023-04-17T11:04:23.876Z,24.10
2023-04-17T11:06:31.342Z,12.67
2023-04-17T11:08:33.631Z,11.47
2023-04-17T11:10:37.344Z,11.97
2023-04-17T11:12:39.531Z,15.33
2023-04-17T11:14:43.140Z,9.70
2023-04-17T11:16:48.869Z,15.30
2023-04-17T11:18:52.164Z,11.37
2023-04-17T11:20:54.286Z,22.50
2023-04-17T11:22:58.098Z,9.63
2023-04-17T11:25:00.261Z,10.20
2023-04-17T11:27:03.648Z,10.93
2023-04-17T11:29:16.844Z,17.57
2023-04-17T11:31:21.003Z,12.07
2023-04-17T11:33:23.916Z,14.60
2023-04-17T11:35:37.172Z,14.03
2023-04-17T11:38:17.702Z,13.93
2023-04-17T11:40:23.789Z,13.60
2023-04-17T11:42:28.359Z,14.40
2023-04-17T11:44:30.739Z,11.73
2023-04-17T11:46:32.954Z,16.20
2023-04-17T11:48:35.271Z,13.00
2023-04-17T11:50:37.557Z,14.30
2023-04-17T11:52:39.833Z,13.13
2023-04-17T11:54:42.081Z,14.90
2023-04-17T11:57:01.675Z,12.87
2023-04-17T11:59:05.294Z,14.33
2023-04-17T12:01:07.529Z,11.30
2023-04-17T12:03:35.114Z,13.50
2023-04-17T12:05:38.042Z,15.90
2023-04-17T12:07:40.414Z,13.00
2023-04-17T12:09:42.719Z,19.10
2023-04-17T12:11:44.867Z,14.87
2023-04-17T12:13:47.136Z,13.80
2023-04-17T12:15:49.794Z,16.67
2023-04-17T12:17:52.002Z,11.83
2023-04-17T12:19:54.219Z,13.80
2023-04-17T12:21:56.674Z,11.27
2023-04-17T12:23:58.948Z,13.77
2023-04-17T12:26:01.290Z,15.93
2023-04-17T12:28:05.029Z,12.00
2023-04-17T12:30:07.867Z,17.17
2023-04-17T12:32:10.817Z,16.60
2023-04-17T12:34:13.390Z,15.70
2023-04-17T12:36:15.808Z,14.50
2023-04-17T12:38:18.152Z,13.53
2023-04-17T12:40:24.471Z,10.87
2023-04-17T12:42:29.534Z,10.33
2023-04-17T12:44:33.609Z,11.80
2023-04-17T12:46:36.329Z,11.30
2023-04-17T12:48:38.522Z,14.40
2023-04-17T12:50:42.709Z,11.40
2023-04-17T12:52:44.909Z,11.07
2023-04-17T12:54:47.039Z,9.90
2023-04-17T12:56:49.423Z,11.43
2023-04-17T12:58:51.698Z,16.73
2023-04-17T13:00:54.444Z,11.20
2023-04-17T13:02:57.254Z,16.30
2023-04-17T13:04:59.625Z,17.33
2023-04-17T13:07:01.968Z,14.27
2023-04-17T13:09:04.885Z,12.60
2023-04-17T13:11:07.447Z,13.33
2023-04-17T13:13:09.960Z,11.00
2023-04-17T13:15:13.569Z,14.43
2023-04-17T13:17:17.320Z,13.73
2023-04-17T13:19:20.276Z,11.43
2023-04-17T13:21:22.510Z,14.37
2023-04-17T13:23:24.719Z,14.93
2023-04-17T13:25:26.937Z,14.87
2023-04-17T13:27:29.085Z,14.40
2023-04-17T13:29:31.396Z,11.93
2023-04-17T13:31:33.628Z,13.13
2023-04-17T13:33:35.853Z,12.87
2023-04-17T13:35:38.102Z,16.80
2023-04-17T13:37:41.703Z,18.47
2023-04-17T13:39:43.976Z,17.80
2023-04-17T13:41:46.427Z,12.07
2023-04-17T13:43:48.603Z,10.23
2023-04-17T13:45:52.696Z,12.00
2023-04-17T13:47:56.601Z,13.43
2023-04-17T13:49:58.824Z,13.03
2023-04-17T13:52:00.973Z,11.80
2023-04-17T13:54:03.204Z,14.03
2023-04-17T13:56:05.768Z,13.40
2023-04-17T13:58:07.866Z,14.57
2023-04-17T14:00:13.786Z,11.10
2023-04-17T14:02:16.055Z,14.73
2023-04-17T14:04:18.601Z,11.57
2023-04-17T14:06:21.002Z,10.90
2023-04-17T14:08:23.203Z,10.10
2023-04-17T14:10:25.641Z,10.50
2023-04-17T14:12:28.033Z,10.80
2023-04-17T14:14:30.252Z,12.03
2023-04-17T14:16:32.565Z,13.90
2023-04-17T14:18:34.842Z,12.80
2023-04-17T14:20:37.093Z,12.33
2023-04-17T14:22:39.292Z,9.40
2023-04-17T14:24:41.498Z,16.37
2023-04-17T14:26:43.700Z,15.03
2023-04-17T14:28:45.933Z,15.00
2023-04-17T14:30:48.595Z,12.50
2023-04-17T14:32:52.767Z,9.30
2023-04-17T14:34:55.581Z,10.87
2023-04-17T14:36:58.356Z,18.83
2023-04-17T14:39:00.558Z,10.43
2023-04-17T14:41:02.757Z,14.60
2023-04-17T14:43:05.099Z,11.33
2023-04-17T14:45:08.106Z,11.90
2023-04-17T14:47:11.146Z,9.50
2023-04-17T14:49:13.568Z,12.23
2023-04-17T14:51:16.973Z,9.87
2023-04-17T14:53:21.424Z,8.53
2023-04-17T14:55:24.417Z,12.57
2023-04-17T14:57:26.638Z,8.97
2023-04-17T14:59:29.016Z,14.77
2023-04-17T15:01:31.405Z,7.80
2023-04-17T15:03:33.925Z,13.90
2023-04-17T15:05:36.308Z,10.23
2023-04-17T15:07:38.547Z,13.63
2023-04-17T15:09:40.804Z,11.77
2023-04-17T15:11:43.052Z,9.73
2023-04-17T15:13:45.170Z,8.63
2023-04-17T15:15:47.486Z,12.77
2023-04-17T15:17:49.745Z,9.57
2023-04-17T15:19:51.935Z,11.90
2023-04-17T15:21:54.133Z,10.03
2023-04-17T15:23:56.262Z,9.13
2023-04-17T15:25:58.626Z,11.53
2023-04-17T15:28:01.115Z,12.10
2023-04-17T15:30:06.647Z,11.60
2023-04-17T15:32:08.867Z,12.83
2023-04-17T15:34:13.502Z,11.73
2023-04-17T15:36:15.841Z,11.87
2023-04-17T15:38:18.091Z,9.90
2023-04-17T15:40:20.265Z,12.87
2023-04-17T15:42:22.800Z,13.03
2023-04-17T15:44:25.025Z,10.63
2023-04-17T15:46:27.302Z,17.97
2023-04-17T15:48:29.921Z,18.03
2023-04-17T15:50:32.201Z,12.13
2023-04-17T15:52:34.719Z,14.90
2023-04-17T15:54:36.888Z,15.87
2023-04-17T15:56:39.620Z,15.10
2023-04-17T15:58:42.526Z,14.83
2023-04-17T16:00:44.668Z,16.20
2023-04-17T16:02:47.962Z,17.27
2023-04-17T16:04:50.305Z,21.27
2023-04-17T16:06:52.536Z,15.43
2023-04-17T16:08:54.724Z,17.80
2023-04-17T16:10:57.009Z,18.73
2023-04-17T16:12:59.201Z,20.00
2023-04-17T16:15:01.568Z,16.60
2023-04-17T16:17:04.582Z,14.43
2023-04-17T16:19:07.519Z,17.27
2023-04-17T16:21:12.620Z,18.90
2023-04-17T16:23:14.963Z,18.87
2023-04-17T16:25:18.196Z,22.10
2023-04-17T16:27:21.851Z,19.27
2023-04-17T16:29:24.949Z,17.40
2023-04-17T16:31:28.109Z,19.00
2023-04-17T16:33:30.396Z,17.13
2023-04-17T16:35:32.642Z,21.87
2023-04-17T16:37:34.793Z,24.70
2023-04-17T16:39:36.934Z,17.83
2023-04-17T16:41:39.140Z,20.17
2023-04-17T16:43:44.304Z,18.10
2023-04-17T16:45:46.411Z,23.23
2023-04-17T16:47:48.605Z,22.60
2023-04-17T16:49:50.931Z,23.17
2023-04-17T16:51:53.214Z,21.13
2023-04-17T16:53:55.530Z,23.10
2023-04-17T16:55:57.725Z,22.63
2023-04-17T16:58:00.696Z,20.73
2023-04-17T17:00:03.487Z,21.57
2023-04-17T17:02:06.064Z,25.03
2023-04-17T17:04:08.453Z,20.00
2023-04-17T17:06:10.877Z,24.40
2023-04-17T17:08:14.407Z,25.30
2023-04-17T17:10:16.711Z,24.13
2023-04-17T17:12:18.954Z,24.87
2023-04-17T17:14:21.243Z,24.83
2023-04-17T17:16:23.461Z,21.30
2023-04-17T17:18:25.782Z,22.13
2023-04-17T17:20:28.099Z,21.63
2023-04-17T17:22:30.261Z,22.63
2023-04-17T17:24:32.542Z,26.97
2023-04-17T17:26:45.443Z,23.07
2023-04-17T17:28:51.255Z,20.00
2023-04-17T17:31:07.841Z,20.30
2023-04-17T17:33:10.087Z,24.93
2023-04-17T17:35:12.280Z,18.30
2023-04-17T17:37:14.477Z,22.10
2023-04-17T17:39:16.914Z,21.10
2023-04-17T17:41:19.164Z,22.00
2023-04-17T17:43:21.559Z,17.27
2023-04-17T17:45:23.674Z,20.77
2023-04-17T17:47:26.034Z,21.97
2023-04-17T17:49:28.425Z,18.53
2023-04-17T17:51:31.296Z,21.10
2023-04-17T17:53:33.494Z,23.03
2023-04-17T17:55:38.029Z,21.20
2023-04-17T17:57:48.794Z,18.80
2023-04-17T17:59:52.688Z,21.83
2023-04-17T18:01:55.607Z,19.60
2023-04-17T18:03:58.073Z,18.73
2023-04-17T18:06:00.634Z,19.30
2023-04-17T18:08:02.790Z,17.30
2023-04-17T18:10:05.776Z,19.77
2023-04-17T18:12:08.047Z,22.23
2023-04-17T18:14:10.369Z,20.57
2023-04-17T18:16:12.761Z,21.97
2023-04-17T18:18:14.962Z,28.03
2023-04-17T18:20:17.298Z,20.30
2023-04-17T18:22:21.442Z,22.30
2023-04-17T18:24:23.749Z,22.60
2023-04-17T18:26:26.095Z,23.70
2023-04-17T18:28:28.736Z,32.87
2023-04-17T18:30:31.095Z,23.07
2023-04-17T18:32:33.492Z,24.03
2023-04-17T18:34:35.688Z,21.73
2023-04-17T18:36:37.984Z,25.17
2023-04-17T18:38:40.237Z,22.27
2023-04-17T18:40:42.509Z,23.93
2023-04-17T18:42:44.613Z,23.73
2023-04-17T18:44:47.133Z,22.97
2023-04-17T18:46:49.450Z,25.43
2023-04-17T18:48:51.751Z,25.27
2023-04-17T18:50:53.972Z,27.97
2023-04-17T18:52:56.394Z,28.40
2023-04-17T18:54:58.694Z,34.00
2023-04-17T18:57:01.888Z,25.80
2023-04-17T18:59:04.794Z,29.47
2023-04-17T19:01:08.790Z,30.40
2023-04-17T19:03:11.179Z,29.33
2023-04-17T19:05:13.772Z,28.30
2023-04-17T19:07:15.955Z,28.20
2023-04-17T19:09:18.176Z,29.80
2023-04-17T19:11:21.077Z,27.07
2023-04-17T19:13:23.299Z,26.90
2023-04-17T19:15:25.842Z,34.83
2023-04-17T19:17:28.085Z,29.17
2023-04-17T19:19:30.248Z,35.03
2023-04-17T19:21:32.872Z,32.17
2023-04-17T19:23:37.158Z,34.07
2023-04-17T19:25:41.601Z,35.33
2023-04-17T19:27:44.976Z,28.13
2023-04-17T19:29:47.655Z,34.07
2023-04-17T19:31:50.206Z,30.53
2023-04-17T19:33:56.092Z,31.73
2023-04-17T19:35:58.743Z,29.57
2023-04-17T19:38:00.995Z,34.60
2023-04-17T19:40:08.681Z,31.57
2023-04-17T19:42:16.707Z,31.50
2023-04-17T19:44:19.154Z,27.67
2023-04-17T19:46:23.005Z,29.60
2023-04-17T19:48:25.828Z,30.33
2023-04-17T19:50:29.505Z,27.53
2023-04-17T19:52:31.664Z,31.10
2023-04-17T19:54:33.930Z,29.90
2023-04-17T19:56:36.086Z,26.17
2023-04-17T19:58:38.623Z,27.60
2023-04-17T20:00:41.052Z,24.30
2023-04-17T20:02:43.686Z,26.23
2023-04-17T20:04:45.977Z,23.07
2023-04-17T20:06:48.218Z,25.33
2023-04-17T20:08:50.442Z,23.23
2023-04-17T20:10:52.740Z,23.40
2023-04-17T20:12:54.935Z,23.13
2023-04-17T20:14:57.087Z,21.73
2023-04-17T20:17:00.432Z,25.47
2023-04-17T20:19:02.781Z,24.30
2023-04-17T20:21:06.414Z,26.20
2023-04-17T20:23:08.819Z,23.23
2023-04-17T20:25:11.010Z,22.17
2023-04-17T20:27:13.148Z,22.03
2023-04-17T20:29:15.583Z,23.00
2023-04-17T20:31:17.934Z,19.07
2023-04-17T20:33:20.372Z,18.53
2023-04-17T20:35:24.552Z,20.17
2023-04-17T20:37:26.777Z,17.77
2023-04-17T20:39:29.635Z,17.80
2023-04-17T20:41:31.864Z,14.17
2023-04-17T20:43:34.049Z,15.40
2023-04-17T20:45:36.220Z,16.50
2023-04-17T20:47:43.542Z,18.60
2023-04-17T20:49:57.425Z,14.90
2023-04-17T20:51:59.586Z,17.40
2023-04-17T20:54:01.807Z,16.43
2023-04-17T20:56:04.623Z,14.87
2023-04-17T20:58:06.942Z,13.50
2023-04-17T21:00:09.685Z,16.50
2023-04-17T21:02:11.955Z,18.80
2023-04-17T21:04:14.325Z,13.70
2023-04-17T21:06:17.784Z,13.00
2023-04-17T21:08:19.993Z,15.63
2023-04-17T21:10:22.322Z,15.77
2023-04-17T21:12:24.509Z,15.00
2023-04-17T21:14:28.062Z,18.60
2023-04-17T21:16:31.244Z,15.43
2023-04-17T21:18:33.494Z,13.73
2023-04-17T21:20:35.988Z,14.50
2023-04-17T21:22:38.084Z,13.17
2023-04-17T21:24:40.305Z,15.60
2023-04-17T21:26:42.526Z,13.87
2023-04-17T21:28:44.710Z,15.13
2023-04-17T21:30:47.315Z,17.20
2023-04-17T21:32:49.432Z,13.83
2023-04-17T21:34:51.665Z,15.57
2023-04-17T21:36:54.423Z,16.83
2023-04-17T21:38:56.698Z,19.70
2023-04-17T21:40:58.889Z,15.33
2023-04-17T21:43:01.603Z,14.53
2023-04-17T21:45:04.118Z,15.17
2023-04-17T21:47:06.385Z,17.80
2023-04-17T21:49:08.815Z,17.90
2023-04-17T21:51:11.072Z,18.47
2023-04-17T21:53:13.252Z,17.80
2023-04-17T21:55:15.464Z,19.63
2023-04-17T21:57:17.770Z,19.67
2023-04-17T21:59:20.056Z,19.03
2023-04-17T22:01:22.308Z,16.33
2023-04-17T22:03:24.679Z,17.87
2023-04-17T22:05:26.999Z,18.27
2023-04-17T22:07:29.212Z,19.17
2023-04-17T22:09:31.360Z,16.40
2023-04-17T22:11:33.653Z,18.10
2023-04-17T22:13:36.227Z,16.10
2023-04-17T22:15:38.396Z,16.53
2023-04-17T22:17:41.162Z,14.53
2023-04-17T22:19:43.423Z,17.20
2023-04-17T22:21:45.584Z,15.20
2023-04-17T22:23:47.733Z,17.70
2023-04-17T22:25:49.887Z,14.87
2023-04-17T22:27:52.263Z,17.10
2023-04-17T22:29:54.455Z,15.53
2023-04-17T22:31:56.591Z,16.33
2023-04-17T22:33:58.718Z,14.50
2023-04-17T22:36:00.751Z,13.93
2023-04-17T22:38:02.761Z,17.27
2023-04-17T22:40:05.259Z,16.50
2023-04-17T22:42:07.336Z,17.40
2023-04-17T22:44:09.417Z,15.23
2023-04-17T22:46:11.684Z,16.50
2023-04-17T22:48:14.309Z,15.20
2023-04-17T22:50:17.766Z,19.23
2023-04-17T22:52:19.813Z,14.23
2023-04-17T22:54:23.254Z,16.70
2023-04-17T22:56:25.472Z,18.57
2023-04-17T22:58:27.524Z,15.13
2023-04-17T23:00:30.540Z,17.80
2023-04-17T23:02:32.671Z,17.60
2023-04-17T23:04:34.874Z,18.87
2023-04-17T23:06:36.869Z,16.50
2023-04-17T23:08:38.963Z,17.00
2023-04-17T23:10:40.908Z,17.63
2023-04-17T23:12:42.976Z,15.40
2023-04-17T23:14:46.045Z,12.40
2023-04-17T23:16:48.081Z,14.93
2023-04-17T23:18:50.116Z,21.83
2023-04-17T23:20:52.157Z,14.00
2023-04-17T23:22:54.173Z,18.83
2023-04-17T23:24:56.895Z,13.20
2023-04-17T23:26:58.928Z,13.20
2023-04-17T23:29:00.933Z,15.67
2023-04-17T23:31:06.544Z,14.80
2023-04-17T23:33:09.711Z,14.60
2023-04-17T23:35:11.801Z,14.83
2023-04-17T23:37:13.972Z,17.23
2023-04-17T23:39:15.940Z,16.20
2023-04-17T23:41:17.915Z,15.20
2023-04-17T23:43:19.913Z,16.27
2023-04-17T23:45:21.940Z,17.77
2023-04-17T23:47:24.305Z,15.77
2023-04-17T23:49:26.261Z,17.10
2023-04-17T23:51:28.413Z,16.70
2023-04-17T23:53:30.434Z,16.87
2023-04-17T23:55:32.475Z,17.40
2023-04-17T23:57:35.509Z,17.27
2023-04-17T23:59:37.586Z,19.93
